Aguada De Pasajeros, Cuba

6:16 AM CDT on August 31, 2014 (GMT -0400)
Juan G. Gomez International | Change Station
CLOSE
Current Station
Airport
Location: Varadero,
Elevation: 213 ft
Nearby Weather Stations

Elev 213 ft 23.03 °N, 81.44 °W | Updated 26 minutes ago

Partly Cloudy
Partly Cloudy
72 °F
Feels Like 72 °F
N
5
Wind Variable Wind from SE

Today
High -- | Low -- °F
--% Chance of Precip.
Yesterday
High -- | Low -- °F
Precip. -- in
7:05 AM 7:41 PM
Waxing Crescent, 29% visible
Pressure 30.06 in
Visibility 5.0 miles
Clouds Few 3000 ft
Dew Point 68 °F
Humidity 88%
Rainfall 0.00 in
Snow Depth Not available.
UV 0 out of 12
Pollen Not available.
Air Quality Not available.
Flu Activity Not available.
METAR MUVR 310950Z 13004KT 8000 FEW030 22/20 Q1018

More Conditions Fewer Conditions

Pressure 30.06 in
Visibility 5.0 miles
Clouds Few 3000 ft
Dew Point 68 °F
Humidity 88%
Rainfall 0.00 in
Snow Depth Not available.
UV 0 out of 12
Pollen Not available.
Air Quality Not available.
Flu Activity Not available.
METAR MUVR 310950Z 13004KT 8000 FEW030 22/20 Q1018

More Conditions Fewer Conditions

10-Day Weather Forecast

Almanac

Astronomy

Aug. 31, 2014 Rise Set
Actual Time 7:05 AM CDT 7:41 PM CDT
Civil Twilight 6:43 AM CDT 8:03 PM CDT
Nautical Twilight 6:16 AM CDT 8:30 PM CDT
Astronomical Twilight 5:49 AM CDT 8:57 PM CDT
Moon 12:08 PM CDT 11:39 PM CDT
Length of Visible Light 13h 20m
Length of Day
12h 35m
Tomorrow will be 1m 14s shorter.
Waxing Crescent, 29% of the Moon is Illuminated
Today
Waxing Crescent
Sep 2
First Quarter
Sep 8
Full
Sep 15
Last Quarter
Sep 24
New

Yesterday's Extremes

Country Highs Country Lows

Community

WunderPhotos

Upload Photos

1,748,834 photos uploaded!

Nearby

Snow Depth

Not available.

Earthquake Activity

City Distance Mag. Time & Date
No recent earthquake activity has been reported nearby.
Minimum magnitude displayed is 2.5.

Coastal Water Temperatures

Place Temperature
No Stations Reporting

Nearby Weather Stations